createdAt,value
2022-12-27T00:00:33.407Z,81.84
2022-12-27T00:01:33.412Z,81.84
2022-12-27T00:02:33.453Z,82.15
2022-12-27T00:03:33.386Z,82.53
2022-12-27T00:04:33.364Z,82.01
2022-12-27T00:05:33.432Z,82.19
2022-12-27T00:06:33.505Z,82.15
2022-12-27T00:07:33.526Z,82.46
2022-12-27T00:08:33.522Z,82.05
2022-12-27T00:09:33.514Z,81.98
2022-12-27T00:10:33.496Z,81.09
2022-12-27T00:11:33.495Z,81.91
2022-12-27T00:12:33.598Z,81.70
2022-12-27T00:13:33.619Z,81.60
2022-12-27T00:14:33.595Z,81.39
2022-12-27T00:15:33.676Z,81.46
2022-12-27T00:16:34.088Z,81.43
2022-12-27T00:17:33.718Z,82.01
2022-12-27T00:18:33.739Z,81.81
2022-12-27T00:19:33.753Z,81.49
2022-12-27T00:20:33.739Z,81.64
2022-12-27T00:21:33.830Z,81.84
2022-12-27T00:22:33.740Z,82.01
2022-12-27T00:23:33.720Z,81.91
2022-12-27T00:24:33.728Z,81.70
2022-12-27T00:25:33.768Z,81.70
2022-12-27T00:26:33.764Z,81.84
2022-12-27T00:27:33.775Z,82.26
2022-12-27T00:28:33.763Z,82.22
2022-12-27T00:29:33.741Z,82.01
2022-12-27T00:30:33.740Z,81.60
2022-12-27T00:31:33.809Z,81.95
2022-12-27T00:32:33.716Z,82.26
2022-12-27T00:33:33.724Z,81.81
2022-12-27T00:34:33.715Z,81.81
2022-12-27T00:35:33.723Z,81.49
2022-12-27T00:36:33.712Z,82.01
2022-12-27T00:37:33.702Z,82.01
2022-12-27T00:38:33.770Z,82.22
2022-12-27T00:39:33.853Z,81.70
2022-12-27T00:40:33.862Z,81.35
2022-12-27T00:41:33.842Z,81.91
2022-12-27T00:42:33.841Z,82.22
2022-12-27T00:43:33.924Z,82.26
2022-12-27T00:44:33.920Z,82.32
2022-12-27T00:45:33.986Z,82.22
2022-12-27T00:46:34.047Z,82.22
2022-12-27T00:47:34.044Z,82.43
2022-12-27T00:48:34.027Z,82.08
2022-12-27T00:49:34.084Z,82.12
2022-12-27T00:50:34.083Z,82.12
2022-12-27T00:51:34.093Z,82.53
2022-12-27T00:52:34.067Z,82.53
2022-12-27T00:53:34.144Z,82.32
2022-12-27T00:54:34.134Z,82.53
2022-12-27T00:55:34.195Z,82.74
2022-12-27T00:56:34.312Z,82.64
2022-12-27T00:57:34.295Z,82.74
2022-12-27T00:58:39.881Z,82.64
2022-12-27T00:59:34.385Z,82.84
2022-12-27T01:00:34.456Z,82.29
2022-12-27T01:01:34.749Z,82.22
2022-12-27T01:02:34.446Z,81.91
2022-12-27T01:03:34.492Z,81.87
2022-12-27T01:04:34.509Z,81.46
2022-12-27T01:05:34.507Z,81.56
2022-12-27T01:06:34.489Z,81.56
2022-12-27T01:07:34.479Z,81.67
2022-12-27T01:08:34.491Z,81.60
2022-12-27T01:09:34.569Z,81.35
2022-12-27T01:10:34.551Z,81.35
2022-12-27T01:11:34.653Z,80.94
2022-12-27T01:12:34.638Z,80.84
2022-12-27T01:13:34.616Z,81.15
2022-12-27T01:14:34.698Z,81.25
2022-12-27T01:15:34.723Z,81.29
2022-12-27T01:16:34.787Z,81.46
2022-12-27T01:17:34.720Z,81.05
2022-12-27T01:18:34.710Z,81.05
2022-12-27T01:19:34.771Z,80.84
2022-12-27T01:20:34.851Z,80.80
2022-12-27T01:21:34.866Z,80.08
2022-12-27T01:22:34.851Z,79.77
2022-12-27T01:23:34.950Z,80.32
2022-12-27T01:24:34.939Z,80.53
2022-12-27T01:25:34.948Z,80.94
2022-12-27T01:26:34.995Z,81.05
2022-12-27T01:27:35.014Z,81.70
2022-12-27T01:28:35.027Z,81.49
2022-12-27T01:29:35.047Z,81.35
2022-12-27T01:30:35.040Z,81.25
2022-12-27T01:31:35.122Z,81.15
2022-12-27T01:32:35.083Z,81.29
2022-12-27T01:33:35.081Z,81.56
2022-12-27T01:34:35.153Z,81.35
2022-12-27T01:35:35.222Z,81.05
2022-12-27T01:36:35.287Z,81.05
2022-12-27T01:37:35.372Z,81.05
2022-12-27T01:38:35.363Z,81.25
2022-12-27T01:39:35.367Z,81.25
2022-12-27T01:40:35.367Z,80.84
2022-12-27T01:41:35.384Z,81.25
2022-12-27T01:42:35.369Z,81.15
2022-12-27T01:43:35.377Z,81.05
2022-12-27T01:44:35.359Z,81.15
2022-12-27T01:45:35.528Z,81.15
2022-12-27T01:46:35.483Z,80.29
2022-12-27T01:47:35.457Z,80.39
2022-12-27T01:48:35.538Z,80.70
2022-12-27T01:49:35.565Z,80.80
2022-12-27T01:50:35.549Z,81.05
2022-12-27T01:51:35.606Z,81.67
2022-12-27T01:52:35.685Z,81.87
2022-12-27T01:53:35.671Z,81.98
2022-12-27T01:54:35.757Z,81.67
2022-12-27T01:55:35.740Z,81.11
2022-12-27T01:56:35.797Z,81.25
2022-12-27T01:57:35.866Z,81.35
2022-12-27T01:58:35.957Z,81.25
2022-12-27T01:59:35.927Z,81.56
2022-12-27T02:00:36.008Z,81.67
2022-12-27T02:01:36.134Z,81.11
2022-12-27T02:02:36.152Z,81.35
2022-12-27T02:03:36.083Z,81.67
2022-12-27T02:04:36.076Z,81.52
2022-12-27T02:05:36.076Z,81.35
2022-12-27T02:06:36.063Z,81.56
2022-12-27T02:07:36.131Z,82.01
2022-12-27T02:08:36.203Z,82.08
2022-12-27T02:09:36.269Z,81.67
2022-12-27T02:10:36.265Z,81.46
2022-12-27T02:11:36.349Z,81.87
2022-12-27T02:12:36.342Z,81.56
2022-12-27T02:13:36.340Z,81.25
2022-12-27T02:14:36.319Z,82.12
2022-12-27T02:15:36.389Z,81.98
2022-12-27T02:16:36.507Z,81.77
2022-12-27T02:17:36.512Z,82.18
2022-12-27T02:20:02.515Z,82.18
2022-12-27T02:21:02.591Z,82.08
2022-12-27T02:22:02.571Z,82.53
2022-12-27T02:23:02.553Z,82.95
2022-12-27T02:24:02.623Z,82.53
2022-12-27T02:25:02.627Z,82.18
2022-12-27T02:26:02.643Z,82.32
2022-12-27T02:27:02.623Z,82.84
2022-12-27T02:28:02.691Z,82.84
2022-12-27T02:29:02.760Z,82.80
2022-12-27T02:30:02.846Z,82.64
2022-12-27T02:31:02.858Z,82.84
2022-12-27T02:32:02.863Z,82.64
2022-12-27T02:33:02.940Z,83.15
2022-12-27T02:34:02.995Z,83.15
2022-12-27T02:35:03.063Z,83.25
2022-12-27T02:36:03.055Z,82.74
2022-12-27T02:37:03.051Z,82.70
2022-12-27T02:38:03.115Z,82.50
2022-12-27T02:39:03.189Z,82.74
2022-12-27T02:40:03.165Z,82.64
2022-12-27T02:41:03.238Z,83.05
2022-12-27T02:42:03.258Z,83.29
2022-12-27T02:43:03.236Z,83.15
2022-12-27T02:44:03.297Z,82.90
2022-12-27T02:45:03.374Z,82.50
2022-12-27T02:46:03.376Z,81.73
2022-12-27T02:47:03.392Z,81.63
2022-12-27T02:48:03.370Z,82.29
2022-12-27T02:49:03.441Z,82.60
2022-12-27T02:50:03.510Z,82.70
2022-12-27T02:51:03.502Z,82.18
2022-12-27T02:52:03.559Z,82.60
2022-12-27T02:53:03.628Z,83.01
2022-12-27T02:54:03.693Z,83.25
2022-12-27T02:55:03.767Z,83.11
2022-12-27T02:56:03.748Z,82.70
2022-12-27T02:57:03.828Z,82.35
2022-12-27T02:58:03.828Z,81.98
2022-12-27T02:59:03.808Z,82.50
2022-12-27T03:00:03.880Z,82.50
2022-12-27T03:01:03.971Z,82.60
2022-12-27T03:02:04.151Z,82.70
2022-12-27T03:03:04.127Z,83.01
2022-12-27T03:04:04.020Z,82.45
2022-12-27T03:05:04.080Z,82.39
2022-12-27T03:06:04.150Z,83.11
2022-12-27T03:07:04.227Z,82.97
2022-12-27T03:08:04.229Z,82.29
2022-12-27T03:09:04.214Z,82.80
2022-12-27T03:10:04.264Z,83.11
2022-12-27T03:11:04.239Z,83.11
2022-12-27T03:12:04.299Z,83.01
2022-12-27T03:13:04.410Z,82.70
2022-12-27T03:14:04.367Z,82.76
2022-12-27T03:15:04.351Z,83.11
2022-12-27T03:16:04.450Z,83.22
2022-12-27T03:17:04.411Z,83.32
2022-12-27T03:18:04.484Z,83.32
2022-12-27T03:19:04.463Z,83.28
2022-12-27T03:20:04.550Z,82.66
2022-12-27T03:21:04.536Z,82.87
2022-12-27T03:22:04.599Z,82.87
2022-12-27T03:23:04.662Z,83.01
2022-12-27T03:24:04.724Z,83.53
2022-12-27T03:25:04.845Z,83.11
2022-12-27T03:26:04.841Z,83.63
2022-12-27T03:27:04.893Z,83.73
2022-12-27T03:28:04.956Z,83.28
2022-12-27T03:29:05.024Z,82.97
2022-12-27T03:30:05.115Z,82.76
2022-12-27T03:31:05.121Z,83.11
2022-12-27T03:32:05.180Z,83.53
2022-12-27T03:33:05.219Z,83.94
2022-12-27T03:34:05.226Z,83.59
2022-12-27T03:35:05.262Z,83.07
2022-12-27T03:36:05.336Z,82.76
2022-12-27T03:37:05.335Z,83.42
2022-12-27T03:38:05.567Z,83.59
2022-12-27T03:39:05.357Z,83.39
2022-12-27T03:40:05.405Z,83.53
2022-12-27T03:41:05.486Z,83.94
2022-12-27T03:42:05.547Z,84.05
2022-12-27T03:43:05.543Z,83.84
2022-12-27T03:44:05.519Z,83.49
2022-12-27T03:45:05.588Z,83.80
2022-12-27T03:46:05.716Z,83.14
2022-12-27T03:47:05.718Z,82.73
2022-12-27T03:48:05.787Z,82.83
2022-12-27T03:49:05.847Z,83.18
2022-12-27T03:50:05.917Z,83.80
2022-12-27T03:51:06.012Z,83.59
2022-12-27T03:52:05.999Z,83.25
2022-12-27T03:53:06.065Z,82.62
2022-12-27T03:54:06.134Z,83.49
2022-12-27T03:55:06.190Z,83.70
2022-12-27T03:56:06.254Z,83.49
2022-12-27T03:57:06.259Z,84.15
2022-12-27T03:58:06.243Z,84.21
2022-12-27T03:59:06.308Z,83.59
2022-12-27T04:00:06.366Z,84.00
2022-12-27T04:01:06.465Z,83.70
2022-12-27T04:02:06.470Z,83.86
2022-12-27T04:03:06.447Z,83.65
2022-12-27T04:04:06.462Z,83.34
2022-12-27T04:05:06.432Z,83.49
2022-12-27T04:06:06.494Z,83.70
2022-12-27T04:07:06.592Z,83.70
2022-12-27T04:08:06.552Z,83.49
2022-12-27T04:09:06.636Z,83.76
2022-12-27T04:10:06.615Z,82.83
2022-12-27T04:11:06.672Z,83.18
2022-12-27T04:12:06.736Z,83.70
2022-12-27T04:13:06.791Z,84.00
2022-12-27T04:14:06.793Z,84.00
2022-12-27T04:15:06.872Z,84.11
2022-12-27T04:16:06.890Z,84.52
2022-12-27T04:17:06.896Z,84.52
2022-12-27T04:18:06.957Z,84.07
2022-12-27T04:19:07.027Z,83.55
2022-12-27T04:20:06.996Z,83.55
2022-12-27T04:21:07.064Z,84.31
2022-12-27T04:22:07.142Z,84.56
2022-12-27T04:23:07.126Z,84.63
2022-12-27T04:24:07.190Z,84.31
2022-12-27T04:25:07.282Z,84.31
2022-12-27T04:26:07.271Z,84.66
2022-12-27T04:27:07.258Z,84.73
2022-12-27T04:28:07.320Z,84.48
2022-12-27T04:29:07.385Z,83.65
2022-12-27T04:30:07.454Z,83.86
2022-12-27T04:31:07.470Z,84.31
2022-12-27T04:32:07.471Z,84.17
2022-12-27T04:33:07.437Z,83.86
2022-12-27T04:34:07.506Z,83.86
2022-12-27T04:35:07.489Z,84.31
2022-12-27T04:36:07.487Z,84.52
2022-12-27T04:37:07.529Z,85.08
2022-12-27T04:38:07.507Z,85.18
2022-12-27T04:39:07.495Z,85.14
2022-12-27T04:40:07.588Z,84.59
2022-12-27T04:41:07.595Z,84.83
2022-12-27T04:42:07.659Z,84.73
2022-12-27T04:43:07.659Z,85.18
2022-12-27T04:44:07.658Z,84.94
2022-12-27T04:45:13.239Z,84.73
2022-12-27T04:46:07.713Z,84.89
2022-12-27T04:47:07.697Z,83.97
2022-12-27T04:48:07.761Z,84.42
2022-12-27T04:49:07.828Z,84.73
2022-12-27T04:50:07.893Z,84.73
2022-12-27T04:51:07.953Z,84.59
2022-12-27T04:52:08.016Z,84.48
2022-12-27T04:53:08.077Z,84.59
2022-12-27T04:54:08.155Z,84.79
2022-12-27T04:55:08.143Z,84.89
2022-12-27T04:56:08.133Z,84.83
2022-12-27T04:57:08.140Z,85.18
2022-12-27T04:58:08.120Z,85.49
2022-12-27T04:59:08.193Z,85.55
2022-12-27T05:00:08.171Z,85.14
2022-12-27T05:01:13.993Z,85.24
2022-12-27T05:02:08.292Z,85.10
2022-12-27T05:03:08.425Z,84.79
2022-12-27T05:04:08.332Z,84.79
2022-12-27T05:05:08.381Z,85.04
2022-12-27T05:06:08.380Z,84.94
2022-12-27T05:07:08.382Z,85.55
2022-12-27T05:08:08.365Z,85.31
2022-12-27T05:09:08.433Z,84.79
2022-12-27T05:10:08.519Z,84.48
2022-12-27T05:11:08.504Z,84.59
2022-12-27T05:12:08.591Z,84.63
2022-12-27T05:13:08.584Z,85.14
2022-12-27T05:14:08.561Z,85.00
2022-12-27T05:15:08.611Z,84.83
2022-12-27T05:16:08.642Z,85.14
2022-12-27T05:17:08.648Z,85.35
2022-12-27T05:18:08.647Z,84.73
2022-12-27T05:19:08.631Z,84.83
2022-12-27T05:20:08.637Z,85.04
2022-12-27T05:21:08.623Z,84.59
2022-12-27T05:22:08.622Z,84.83
2022-12-27T05:23:08.618Z,85.14
2022-12-27T05:24:08.596Z,84.83
2022-12-27T05:25:08.674Z,85.14
2022-12-27T05:26:08.744Z,84.42
2022-12-27T05:27:08.827Z,84.73
2022-12-27T05:28:08.800Z,84.38
2022-12-27T05:29:08.864Z,84.11
2022-12-27T05:30:08.960Z,84.31
2022-12-27T05:31:08.986Z,84.73
2022-12-27T05:32:13.021Z,84.48
2022-12-27T05:33:09.002Z,83.97
2022-12-27T05:34:09.069Z,84.63
2022-12-27T05:35:09.107Z,84.87
2022-12-27T05:36:09.115Z,85.24
2022-12-27T05:37:09.095Z,84.59
2022-12-27T05:38:09.095Z,84.28
2022-12-27T05:39:09.147Z,84.38
2022-12-27T05:40:09.218Z,84.42
2022-12-27T05:41:09.287Z,84.48
2022-12-27T05:42:09.279Z,84.59
2022-12-27T05:43:09.261Z,84.69
2022-12-27T05:44:09.263Z,85.04
2022-12-27T05:45:09.321Z,85.24
2022-12-27T05:46:09.411Z,85.45
2022-12-27T05:47:09.398Z,85.45
2022-12-27T05:48:09.409Z,85.70
2022-12-27T05:49:09.477Z,85.45
2022-12-27T05:50:09.467Z,85.55
2022-12-27T05:51:09.502Z,85.14
2022-12-27T05:52:09.479Z,85.35
2022-12-27T05:53:09.502Z,85.14
2022-12-27T05:54:09.472Z,85.31
2022-12-27T05:55:09.568Z,84.79
2022-12-27T05:56:09.551Z,85.31
2022-12-27T05:57:09.655Z,85.45
2022-12-27T05:58:09.641Z,85.66
2022-12-27T05:59:09.633Z,85.55
2022-12-27T06:00:09.691Z,85.31
2022-12-27T06:01:09.764Z,85.10
2022-12-27T06:02:09.943Z,84.89
2022-12-27T06:03:09.973Z,85.24
2022-12-27T06:04:09.871Z,85.55
2022-12-27T06:05:09.902Z,86.07
2022-12-27T06:06:09.887Z,85.86
2022-12-27T06:07:09.944Z,86.03
2022-12-27T06:08:10.000Z,85.21
2022-12-27T06:09:10.062Z,85.31
2022-12-27T06:10:10.157Z,85.86
2022-12-27T06:11:10.134Z,85.52
2022-12-27T06:12:10.124Z,85.52
2022-12-27T06:13:10.175Z,85.21
2022-12-27T06:14:10.246Z,84.34
2022-12-27T06:15:10.308Z,84.79
2022-12-27T06:16:10.404Z,85.21
2022-12-27T06:17:10.396Z,85.41
2022-12-27T06:18:10.454Z,85.72
2022-12-27T06:19:10.516Z,85.52
2022-12-27T06:20:10.586Z,85.52
2022-12-27T06:21:10.663Z,85.31
2022-12-27T06:22:10.737Z,85.41
2022-12-27T06:23:10.716Z,85.41
2022-12-27T06:24:10.783Z,85.21
2022-12-27T06:25:14.116Z,85.55
2022-12-27T06:26:10.829Z,85.62
2022-12-27T06:27:10.905Z,85.41
2022-12-27T06:28:10.914Z,85.76
2022-12-27T06:29:10.924Z,86.03
2022-12-27T06:30:10.978Z,85.52
2022-12-27T06:31:11.198Z,85.10
2022-12-27T06:32:11.094Z,85.31
2022-12-27T06:33:11.164Z,85.10
2022-12-27T06:34:11.158Z,85.41
2022-12-27T06:35:11.155Z,85.21
2022-12-27T06:36:11.156Z,85.21
2022-12-27T06:37:11.144Z,85.83
2022-12-27T06:38:11.200Z,85.41
2022-12-27T06:39:11.275Z,85.52
2022-12-27T06:40:11.343Z,85.52
2022-12-27T06:41:11.389Z,85.52
2022-12-27T06:42:11.464Z,85.41
2022-12-27T06:43:11.449Z,85.83
2022-12-27T06:44:11.510Z,85.83
2022-12-27T06:45:11.572Z,85.37
2022-12-27T06:46:17.165Z,85.52
2022-12-27T06:47:11.666Z,85.58
2022-12-27T06:48:11.652Z,85.93
2022-12-27T06:49:11.711Z,85.78
2022-12-27T06:50:11.702Z,85.37
2022-12-27T06:51:11.762Z,85.06
2022-12-27T06:52:11.843Z,85.27
2022-12-27T06:53:11.822Z,85.68
2022-12-27T06:54:11.897Z,85.37
2022-12-27T06:55:11.953Z,85.27
2022-12-27T06:56:12.015Z,85.37
2022-12-27T06:57:12.084Z,84.55
2022-12-27T06:58:12.089Z,85.37
2022-12-27T06:59:12.054Z,85.06
2022-12-27T07:00:12.134Z,85.31
2022-12-27T07:01:12.240Z,86.13
2022-12-27T07:02:12.302Z,85.78
2022-12-27T07:03:12.272Z,85.78
2022-12-27T07:04:12.202Z,85.58
2022-12-27T07:05:12.203Z,85.72
2022-12-27T07:06:12.188Z,86.34
2022-12-27T07:07:15.889Z,86.61
2022-12-27T07:08:12.268Z,85.89
2022-12-27T07:09:12.343Z,84.92
2022-12-27T07:10:12.339Z,84.92
2022-12-27T07:11:12.315Z,85.06
2022-12-27T07:12:12.396Z,85.23
2022-12-27T07:13:12.448Z,85.17
2022-12-27T07:14:12.506Z,85.33
2022-12-27T07:15:12.587Z,85.47
2022-12-27T07:16:12.737Z,85.27
2022-12-27T07:17:12.639Z,85.23
2022-12-27T07:18:12.655Z,84.81
2022-12-27T07:19:12.669Z,85.27
2022-12-27T07:20:12.730Z,85.68
2022-12-27T07:21:12.739Z,85.58
2022-12-27T07:22:12.781Z,85.47
2022-12-27T07:23:15.809Z,85.68
2022-12-27T07:24:12.817Z,85.13
2022-12-27T07:25:12.823Z,84.57
2022-12-27T07:26:12.833Z,83.64
2022-12-27T07:27:12.848Z,84.09
2022-12-27T07:28:12.858Z,84.51
2022-12-27T07:29:12.889Z,84.86
2022-12-27T07:30:12.895Z,84.61
2022-12-27T07:31:12.906Z,84.72
2022-12-27T07:32:12.903Z,84.92
2022-12-27T07:33:12.931Z,84.81
2022-12-27T07:34:12.943Z,85.02
2022-12-27T07:35:12.947Z,84.72
2022-12-27T07:36:12.960Z,84.57
2022-12-27T07:37:13.020Z,84.81
2022-12-27T07:38:13.051Z,84.72
2022-12-27T07:39:13.081Z,84.06
2022-12-27T07:40:13.123Z,84.09
2022-12-27T07:41:13.171Z,84.30
2022-12-27T07:42:13.187Z,84.51
2022-12-27T07:43:13.222Z,84.27
2022-12-27T07:44:13.242Z,84.41
2022-12-27T07:45:13.243Z,84.16
2022-12-27T07:46:13.329Z,84.06
2022-12-27T07:47:13.295Z,83.85
2022-12-27T07:48:13.322Z,84.16
2022-12-27T07:49:17.561Z,84.30
2022-12-27T07:50:13.424Z,84.51
2022-12-27T07:51:13.405Z,84.92
2022-12-27T07:52:13.387Z,84.78
2022-12-27T07:53:13.375Z,84.06
2022-12-27T07:54:13.376Z,84.20
2022-12-27T07:55:13.379Z,84.67
2022-12-27T07:56:13.374Z,84.27
2022-12-27T07:57:13.368Z,83.99
2022-12-27T07:58:13.356Z,84.09
2022-12-27T07:59:13.370Z,84.41
2022-12-27T08:00:13.380Z,84.86
2022-12-27T08:01:13.558Z,84.92
2022-12-27T08:02:13.500Z,84.61
2022-12-27T08:03:13.445Z,84.61
2022-12-27T08:04:13.427Z,84.30
2022-12-27T08:05:13.453Z,84.61
2022-12-27T08:06:13.452Z,84.72
2022-12-27T08:07:13.475Z,84.16
2022-12-27T08:08:13.485Z,83.95
2022-12-27T08:09:13.487Z,83.64
2022-12-27T08:10:13.516Z,84.16
2022-12-27T08:11:13.528Z,83.95
2022-12-27T08:12:13.571Z,84.20
2022-12-27T08:13:13.589Z,84.57
2022-12-27T08:14:13.645Z,84.16
2022-12-27T08:15:13.690Z,83.91
2022-12-27T08:16:13.806Z,83.54
2022-12-27T08:17:13.773Z,83.75
2022-12-27T08:18:13.816Z,83.75
2022-12-27T08:19:13.816Z,83.61
2022-12-27T08:20:13.813Z,83.29
2022-12-27T08:21:13.810Z,83.54
2022-12-27T08:22:13.839Z,84.06
2022-12-27T08:23:13.880Z,83.50
2022-12-27T08:24:13.921Z,83.44
2022-12-27T08:25:13.961Z,83.81
2022-12-27T08:26:14.036Z,83.29
2022-12-27T08:27:14.071Z,82.78
2022-12-27T08:28:14.060Z,83.26
2022-12-27T08:29:14.092Z,82.84
2022-12-27T08:30:14.133Z,82.43
2022-12-27T08:31:14.214Z,82.89
2022-12-27T08:32:14.212Z,83.44
2022-12-27T08:33:14.221Z,83.71
2022-12-27T08:34:14.252Z,83.40
2022-12-27T08:35:51.507Z,83.54
2022-12-27T08:37:14.312Z,84.30
2022-12-27T08:38:14.393Z,84.30
2022-12-27T08:39:14.405Z,84.27
2022-12-27T08:40:14.424Z,84.16
2022-12-27T08:41:14.463Z,84.36
2022-12-27T08:42:14.500Z,84.36
2022-12-27T08:43:14.592Z,83.99
2022-12-27T08:44:14.564Z,84.30
2022-12-27T08:45:14.591Z,84.06
2022-12-27T08:46:14.620Z,83.85
2022-12-27T08:47:14.633Z,83.64
2022-12-27T08:48:14.692Z,83.64
2022-12-27T08:49:14.719Z,83.50
2022-12-27T08:50:14.745Z,82.47
2022-12-27T08:51:21.942Z,82.47
2022-12-27T08:52:14.787Z,82.71
2022-12-27T08:53:14.828Z,83.44
2022-12-27T08:54:14.831Z,83.29
2022-12-27T08:55:14.872Z,82.89
2022-12-27T08:56:14.938Z,83.03
2022-12-27T08:57:14.917Z,83.23
2022-12-27T08:58:16.521Z,83.64
2022-12-27T08:59:14.986Z,83.33
2022-12-27T09:00:14.967Z,83.33
2022-12-27T09:01:15.080Z,83.29
2022-12-27T09:02:15.095Z,82.74
2022-12-27T09:03:15.117Z,82.47
2022-12-27T09:04:15.132Z,82.89
2022-12-27T09:05:15.189Z,83.33
2022-12-27T09:06:15.213Z,83.81
2022-12-27T09:07:15.268Z,83.09
2022-12-27T09:08:15.339Z,83.64
2022-12-27T09:09:15.379Z,83.75
2022-12-27T09:10:15.452Z,83.75
2022-12-27T09:11:15.500Z,83.61
2022-12-27T09:12:15.586Z,83.61
2022-12-27T09:13:15.609Z,83.23
2022-12-27T09:14:15.642Z,83.75
2022-12-27T09:15:15.689Z,83.89
2022-12-27T09:16:15.791Z,84.61
2022-12-27T09:17:15.763Z,84.81
2022-12-27T09:18:15.821Z,84.36
2022-12-27T09:19:15.889Z,84.06
2022-12-27T09:20:15.932Z,84.06
2022-12-27T09:21:16.008Z,84.36
2022-12-27T09:22:16.022Z,83.91
2022-12-27T09:23:16.065Z,83.19
2022-12-27T09:24:16.068Z,83.50
2022-12-27T09:25:16.164Z,83.05
2022-12-27T09:26:16.149Z,82.78
2022-12-27T09:27:16.194Z,82.74
2022-12-27T09:28:16.250Z,82.26
2022-12-27T09:29:16.290Z,82.89
2022-12-27T09:30:16.265Z,82.98
2022-12-27T09:31:16.327Z,82.84
2022-12-27T09:32:16.304Z,82.89
2022-12-27T09:33:16.296Z,82.98
2022-12-27T09:34:16.334Z,82.57
2022-12-27T09:35:16.365Z,83.40
2022-12-27T09:36:16.461Z,83.44
2022-12-27T09:37:16.458Z,83.23
2022-12-27T09:38:16.496Z,83.23
2022-12-27T09:39:16.532Z,83.19
2022-12-27T09:40:16.601Z,82.78
2022-12-27T09:41:40.845Z,82.74
2022-12-27T09:43:22.380Z,82.33
2022-12-27T09:44:16.635Z,82.33
2022-12-27T09:45:16.638Z,82.12
2022-12-27T09:46:16.655Z,82.50
2022-12-27T09:47:16.698Z,82.43
2022-12-27T09:48:16.732Z,82.78
2022-12-27T09:49:16.751Z,82.95
2022-12-27T09:50:16.768Z,82.43
2022-12-27T09:51:16.837Z,82.74
2022-12-27T09:52:16.788Z,82.43
2022-12-27T09:53:16.790Z,82.64
2022-12-27T09:54:16.808Z,83.15
2022-12-27T09:55:16.904Z,82.40
2022-12-27T09:56:16.878Z,82.23
2022-12-27T09:57:20.729Z,82.84
2022-12-27T09:58:16.989Z,82.95
2022-12-27T09:59:17.011Z,82.54
2022-12-27T10:00:35.247Z,82.78
2022-12-27T10:01:17.220Z,83.26
2022-12-27T10:02:17.205Z,82.95
2022-12-27T10:03:17.144Z,82.33
2022-12-27T10:04:17.171Z,82.84
2022-12-27T10:05:21.589Z,82.64
2022-12-27T10:06:17.229Z,82.54
2022-12-27T10:07:17.273Z,82.51
2022-12-27T10:08:17.282Z,82.98
2022-12-27T10:09:17.367Z,83.09
2022-12-27T10:10:17.349Z,82.98
2022-12-27T10:11:17.423Z,83.40
2022-12-27T10:12:17.456Z,82.78
2022-12-27T10:13:17.540Z,83.09
2022-12-27T10:14:17.532Z,83.13
2022-12-27T10:15:17.560Z,83.29
2022-12-27T10:16:17.601Z,83.19
2022-12-27T10:17:17.637Z,83.09
2022-12-27T10:18:17.685Z,83.54
2022-12-27T10:19:17.753Z,83.47
2022-12-27T10:20:17.815Z,82.84
2022-12-27T10:21:17.785Z,82.40
2022-12-27T10:22:17.810Z,82.09
2022-12-27T10:23:17.855Z,81.47
2022-12-27T10:24:17.943Z,81.61
2022-12-27T10:25:17.925Z,82.19
2022-12-27T10:26:17.927Z,82.33
2022-12-27T10:27:17.988Z,82.64
2022-12-27T10:28:17.971Z,82.68
2022-12-27T10:29:18.015Z,83.40
2022-12-27T10:30:18.081Z,83.50
2022-12-27T10:31:18.093Z,82.84
2022-12-27T10:32:18.067Z,82.98
2022-12-27T10:33:18.187Z,83.61
2022-12-27T10:34:18.147Z,83.19
2022-12-27T10:35:18.206Z,83.36
2022-12-27T10:36:18.277Z,83.40
2022-12-27T10:37:18.338Z,83.56
2022-12-27T10:38:18.379Z,83.36
2022-12-27T10:39:18.428Z,82.84
2022-12-27T10:40:18.503Z,82.91
2022-12-27T10:41:18.469Z,82.70
2022-12-27T10:42:18.549Z,83.15
2022-12-27T10:43:18.625Z,82.70
2022-12-27T10:44:19.466Z,82.81
2022-12-27T10:45:18.645Z,81.95
2022-12-27T10:46:18.718Z,81.98
2022-12-27T10:47:18.700Z,82.60
2022-12-27T10:48:18.701Z,81.84
2022-12-27T10:49:20.929Z,81.57
2022-12-27T10:50:18.760Z,81.74
2022-12-27T10:51:18.810Z,81.95
2022-12-27T10:52:18.889Z,81.84
2022-12-27T10:53:18.872Z,81.63
2022-12-27T10:54:18.903Z,81.49
2022-12-27T10:55:18.913Z,80.26
2022-12-27T10:56:18.902Z,81.26
2022-12-27T10:57:18.996Z,81.53
2022-12-27T10:58:18.953Z,81.49
2022-12-27T10:59:18.950Z,80.33
2022-12-27T11:00:19.082Z,79.81
2022-12-27T11:01:19.175Z,79.40
2022-12-27T11:02:19.259Z,79.91
2022-12-27T11:03:19.083Z,80.05
2022-12-27T11:04:20.942Z,80.51
2022-12-27T11:05:19.208Z,80.67
2022-12-27T11:06:19.212Z,80.19
2022-12-27T11:07:19.293Z,78.75
2022-12-27T11:08:19.238Z,78.78
2022-12-27T11:09:19.245Z,78.99
2022-12-27T11:10:19.296Z,79.50
2022-12-27T11:11:19.291Z,79.40
2022-12-27T11:12:19.365Z,79.75
2022-12-27T11:13:19.375Z,79.19
2022-12-27T11:14:19.376Z,78.61
2022-12-27T11:15:19.377Z,78.03
2022-12-27T11:16:19.406Z,79.19
2022-12-27T11:17:19.416Z,79.61
2022-12-27T11:18:19.409Z,79.54
2022-12-27T11:19:19.409Z,79.75
2022-12-27T11:20:19.407Z,79.75
2022-12-27T11:21:27.260Z,80.30
2022-12-27T11:22:19.529Z,80.16
2022-12-27T11:23:19.518Z,78.61
2022-12-27T11:24:19.552Z,78.72
2022-12-27T11:25:19.553Z,78.72
2022-12-27T11:26:19.548Z,79.03
2022-12-27T11:27:19.611Z,79.50
2022-12-27T11:28:19.688Z,76.58
2022-12-27T11:29:19.702Z,75.59
2022-12-27T11:30:19.702Z,76.55
2022-12-27T11:31:19.869Z,77.62
2022-12-27T11:32:19.757Z,77.48
2022-12-27T11:33:24.721Z,77.48
2022-12-27T11:34:19.762Z,76.58
2022-12-27T11:35:19.824Z,76.86
2022-12-27T11:36:19.936Z,77.51
2022-12-27T11:37:19.901Z,77.92
2022-12-27T11:38:19.954Z,77.51
2022-12-27T11:39:19.972Z,77.62
2022-12-27T11:40:20.038Z,77.27
2022-12-27T11:41:26.125Z,78.03
2022-12-27T11:42:20.052Z,78.78
2022-12-27T11:43:20.293Z,78.78
2022-12-27T11:44:20.124Z,77.96
2022-12-27T11:45:20.177Z,78.06
2022-12-27T11:46:20.213Z,76.58
2022-12-27T11:47:20.316Z,74.53
2022-12-27T11:48:20.262Z,75.38
2022-12-27T11:49:20.287Z,76.51
2022-12-27T11:50:20.373Z,76.69
2022-12-27T11:51:20.305Z,78.06
2022-12-27T11:52:20.399Z,78.68
2022-12-27T11:53:20.387Z,77.82
2022-12-27T11:54:20.427Z,77.82
2022-12-27T11:55:20.440Z,77.92
2022-12-27T11:56:20.410Z,76.28
2022-12-27T11:57:20.414Z,75.76
2022-12-27T11:58:20.450Z,75.87
2022-12-27T11:59:20.405Z,76.28
2022-12-27T12:00:20.495Z,77.45
2022-12-27T12:01:20.465Z,77.65
2022-12-27T12:02:20.525Z,78.58
2022-12-27T12:03:20.537Z,78.68
2022-12-27T12:04:20.651Z,78.50
2022-12-27T12:05:20.515Z,77.62
2022-12-27T12:06:20.538Z,78.27
2022-12-27T12:07:20.519Z,77.27
2022-12-27T12:08:20.530Z,75.59
2022-12-27T12:09:20.732Z,76.14
2022-12-27T12:10:20.697Z,77.10
2022-12-27T12:11:20.689Z,77.51
2022-12-27T12:12:20.665Z,78.20
2022-12-27T12:13:20.747Z,77.20
2022-12-27T12:14:20.974Z,77.82
2022-12-27T12:15:20.847Z,78.44
2022-12-27T12:16:20.935Z,78.03
2022-12-27T12:17:20.932Z,78.30
2022-12-27T12:18:22.368Z,77.68
2022-12-27T12:19:21.019Z,77.58
2022-12-27T12:20:20.972Z,76.58
2022-12-27T12:21:21.060Z,75.21
2022-12-27T12:22:21.062Z,74.98
2022-12-27T12:23:21.183Z,74.15
2022-12-27T12:24:21.305Z,74.36
2022-12-27T12:25:21.348Z,74.49
2022-12-27T12:26:21.323Z,75.83
2022-12-27T12:27:21.306Z,75.45
2022-12-27T12:28:55.698Z,74.43
2022-12-27T12:29:21.483Z,74.02
2022-12-27T12:30:27.097Z,73.95
2022-12-27T12:31:21.456Z,75.45
2022-12-27T12:32:21.436Z,75.69
2022-12-27T12:33:21.552Z,75.08
2022-12-27T12:34:21.555Z,74.84
2022-12-27T12:35:21.543Z,76.62
2022-12-27T12:36:21.592Z,75.62
2022-12-27T12:37:21.668Z,75.38
2022-12-27T12:38:21.662Z,76.38
2022-12-27T12:39:21.707Z,75.42
2022-12-27T12:40:21.728Z,75.32
2022-12-27T12:41:21.771Z,75.62
2022-12-27T12:42:22.277Z,75.76
2022-12-27T12:43:21.848Z,75.69
2022-12-27T12:44:22.014Z,73.98
2022-12-27T12:45:21.978Z,72.69
2022-12-27T12:46:21.926Z,72.75
2022-12-27T12:47:21.979Z,71.39
2022-12-27T12:48:21.992Z,73.13
2022-12-27T12:49:22.357Z,75.56
2022-12-27T12:50:22.109Z,75.83
2022-12-27T12:51:22.139Z,76.68
2022-12-27T12:52:22.191Z,75.59
2022-12-27T12:53:22.197Z,75.01
2022-12-27T12:54:22.220Z,75.28
2022-12-27T12:55:22.398Z,74.49
2022-12-27T12:56:22.299Z,75.21